Time;durP1;ratioP1;P1;durP2;ratioP2;P2;SDS_P1;SDS_P2;PMS_P1;PMS_P2;Temp;Humidity;BMP_temperature;BMP_pressure;BME280_temperature;BME280_humidity;BME280_pressure;Samples;Min_cycle;Max_cycle;Signal;HPM_P1;HPM_P2
2023/12/28 00:01:41;;;;;;;1.75;0.80;;;;;;;;;;5032413;28;20044;-80
2023/12/28 00:04:07;;;;;;;0.82;0.80;;;;;;;;;;5039711;28;20053;-79
2023/12/28 00:06:33;;;;;;;1.95;1.15;;;;;;;;;;5034804;28;20029;-79
2023/12/28 00:09:00;;;;;;;2.53;1.10;;;;;;;;;;5033663;28;20059;-79
2023/12/28 00:11:26;;;;;;;2.53;1.40;;;;;;;;;;5042620;28;20433;-80
2023/12/28 00:13:52;;;;;;;2.03;1.20;;;;;;;;;;5039596;28;20395;-80
2023/12/28 00:16:19;;;;;;;1.73;1.08;;;;;;;;;;5033673;28;20026;-80
2023/12/28 00:18:45;;;;;;;1.42;0.77;;;;;;;;;;5041519;28;20088;-78
2023/12/28 00:21:13;;;;;;;1.80;1.17;;;;;;;;;;5042414;28;20018;-81
2023/12/28 00:23:40;;;;;;;1.60;0.80;;;;;;;;;;5033942;28;20025;-80
2023/12/28 00:26:06;;;;;;;1.35;0.98;;;;;;;;;;5032585;28;20033;-79
2023/12/28 00:28:32;;;;;;;1.38;0.82;;;;;;;;;;5028319;28;20026;-79
2023/12/28 00:30:59;;;;;;;2.25;0.63;;;;;;;;;;5043012;28;20026;-78
2023/12/28 00:33:25;;;;;;;1.23;0.77;;;;;;;;;;5029980;28;20026;-80
2023/12/28 00:35:51;;;;;;;0.65;0.65;;;;;;;;;;5022909;28;20026;-80
2023/12/28 00:38:17;;;;;;;1.13;0.80;;;;;;;;;;5036118;28;20029;-79
2023/12/28 00:40:43;;;;;;;0.80;0.73;;;;;;;;;;5037245;28;20018;-79
2023/12/28 00:43:09;;;;;;;1.02;0.70;;;;;;;;;;5035270;28;20399;-80
2023/12/28 00:45:38;;;;;;;0.82;0.82;;;;;;;;;;5051296;28;20083;-79
2023/12/28 00:48:05;;;;;;;1.45;1.35;;;;;;;;;;5044258;28;20018;-77
2023/12/28 00:50:32;;;;;;;0.85;0.52;;;;;;;;;;5031761;28;20057;-79
2023/12/28 00:52:58;;;;;;;1.15;0.80;;;;;;;;;;5040741;28;20030;-80
2023/12/28 00:55:24;;;;;;;1.60;0.80;;;;;;;;;;5046686;28;20017;-78
2023/12/28 00:57:51;;;;;;;2.05;0.98;;;;;;;;;;5035327;28;20014;-79
2023/12/28 01:00:17;;;;;;;1.00;0.80;;;;;;;;;;5041242;28;20028;-79
2023/12/28 01:02:46;;;;;;;0.63;0.60;;;;;;;;;;5035732;28;20038;-79
2023/12/28 01:05:12;;;;;;;0.93;0.68;;;;;;;;;;5040202;28;20014;-79
2023/12/28 01:07:46;;;;;;;0.95;0.70;;;;;;;;;;5034300;28;20018;-80
2023/12/28 01:10:12;;;;;;;0.63;0.60;;;;;;;;;;5035986;28;20026;-79
2023/12/28 01:12:38;;;;;;;1.70;0.98;;;;;;;;;;5031924;28;20024;-80
2023/12/28 01:15:05;;;;;;;2.05;0.77;;;;;;;;;;5036981;28;20033;-79
2023/12/28 01:17:31;;;;;;;0.73;0.73;;;;;;;;;;5030836;28;20033;-78
2023/12/28 01:19:57;;;;;;;0.50;0.50;;;;;;;;;;5029198;28;20156;-78
2023/12/28 01:22:23;;;;;;;1.23;0.77;;;;;;;;;;5031645;28;20056;-79
2023/12/28 01:24:49;;;;;;;1.70;1.02;;;;;;;;;;5029317;28;20029;-79
2023/12/28 01:27:16;;;;;;;0.73;0.60;;;;;;;;;;5036537;28;20029;-80
2023/12/28 01:29:45;;;;;;;0.93;0.77;;;;;;;;;;5026801;28;20049;-79
2023/12/28 01:32:11;;;;;;;0.70;0.60;;;;;;;;;;5035966;28;20384;-79
2023/12/28 01:34:37;;;;;;;1.58;0.80;;;;;;;;;;5031150;28;20040;-78
2023/12/28 01:37:04;;;;;;;0.73;0.73;;;;;;;;;;5034439;28;20038;-79
2023/12/28 01:39:30;;;;;;;0.75;0.75;;;;;;;;;;5023726;28;20096;-78
2023/12/28 01:41:59;;;;;;;1.13;0.50;;;;;;;;;;5025101;28;20526;-79
2023/12/28 01:44:25;;;;;;;0.70;0.43;;;;;;;;;;5045581;28;20030;-79
2023/12/28 01:46:51;;;;;;;0.47;0.40;;;;;;;;;;5035766;28;20482;-79
2023/12/28 01:49:21;;;;;;;0.70;0.52;;;;;;;;;;5026135;28;20377;-78
2023/12/28 01:51:48;;;;;;;0.80;0.73;;;;;;;;;;5034094;28;20028;-80
2023/12/28 01:54:26;;;;;;;0.80;0.55;;;;;;;;;;5028166;28;20014;-78
2023/12/28 01:56:52;;;;;;;1.50;0.80;;;;;;;;;;5035718;28;20060;-80
2023/12/28 01:59:18;;;;;;;0.63;0.50;;;;;;;;;;5030209;28;20029;-77
2023/12/28 02:01:47;;;;;;;0.57;0.40;;;;;;;;;;5030247;28;20495;-80
2023/12/28 02:04:13;;;;;;;0.80;0.50;;;;;;;;;;5021163;28;20029;-81
2023/12/28 02:06:40;;;;;;;1.27;0.75;;;;;;;;;;5029197;28;20025;-80
2023/12/28 02:09:06;;;;;;;0.95;0.80;;;;;;;;;;5028093;28;20048;-80
2023/12/28 02:11:32;;;;;;;1.85;0.73;;;;;;;;;;5031082;28;20530;-78
2023/12/28 02:13:58;;;;;;;1.25;1.10;;;;;;;;;;5027608;28;20038;-79
2023/12/28 02:16:36;;;;;;;2.10;1.00;;;;;;;;;;5026533;28;20099;-80
2023/12/28 02:19:11;;;;;;;1.05;0.60;;;;;;;;;;5037496;28;20029;-79
2023/12/28 02:21:37;;;;;;;0.80;0.57;;;;;;;;;;5024448;28;20021;-79
2023/12/28 02:24:04;;;;;;;1.13;0.98;;;;;;;;;;5035364;28;20024;-80
2023/12/28 02:26:30;;;;;;;1.77;1.05;;;;;;;;;;5037665;28;20083;-80
2023/12/28 02:28:56;;;;;;;1.30;0.80;;;;;;;;;;5036436;28;20033;-80
2023/12/28 02:31:25;;;;;;;1.30;0.70;;;;;;;;;;5033672;28;20029;-80
2023/12/28 02:33:55;;;;;;;0.60;0.50;;;;;;;;;;5035919;28;20025;-78
2023/12/28 02:36:23;;;;;;;0.73;0.55;;;;;;;;;;5036662;28;20036;-78
2023/12/28 02:38:50;;;;;;;0.63;0.52;;;;;;;;;;5029439;28;20013;-80
2023/12/28 02:41:17;;;;;;;0.98;0.68;;;;;;;;;;5038054;28;20026;-80
2023/12/28 02:43:43;;;;;;;0.73;0.55;;;;;;;;;;5031621;28;20097;-79
2023/12/28 02:46:09;;;;;;;0.30;0.30;;;;;;;;;;5034157;28;20030;-81
2023/12/28 02:48:35;;;;;;;0.63;0.40;;;;;;;;;;5042632;28;20009;-80
2023/12/28 02:51:02;;;;;;;0.32;0.32;;;;;;;;;;5031568;28;20036;-79
2023/12/28 02:53:28;;;;;;;0.55;0.32;;;;;;;;;;5032982;28;20021;-77
2023/12/28 02:55:54;;;;;;;1.50;0.50;;;;;;;;;;5060479;28;20056;-78
2023/12/28 02:58:20;;;;;;;1.92;0.80;;;;;;;;;;5051748;28;20029;-78
2023/12/28 03:00:48;;;;;;;1.00;0.70;;;;;;;;;;5060591;28;20024;-77
2023/12/28 03:03:14;;;;;;;1.50;0.85;;;;;;;;;;5045162;28;19998;-77
2023/12/28 03:05:41;;;;;;;1.48;0.80;;;;;;;;;;5055004;28;20014;-78
2023/12/28 03:08:07;;;;;;;0.73;0.73;;;;;;;;;;5041592;28;20026;-78
2023/12/28 03:10:33;;;;;;;1.27;0.82;;;;;;;;;;5026351;28;20228;-80
2023/12/28 03:12:59;;;;;;;0.60;0.60;;;;;;;;;;5032800;28;20483;-80
2023/12/28 03:15:25;;;;;;;0.68;0.68;;;;;;;;;;5035285;28;20025;-79
2023/12/28 03:17:51;;;;;;;0.70;0.70;;;;;;;;;;5036438;28;20018;-79
2023/12/28 03:20:17;;;;;;;1.48;0.80;;;;;;;;;;5041131;28;20320;-76
2023/12/28 03:22:43;;;;;;;1.02;0.60;;;;;;;;;;5048776;28;20395;-78
2023/12/28 03:25:09;;;;;;;0.55;0.52;;;;;;;;;;5059055;28;20040;-77
2023/12/28 03:27:36;;;;;;;0.90;0.70;;;;;;;;;;5051827;28;20014;-78
2023/12/28 03:30:02;;;;;;;1.33;0.60;;;;;;;;;;5050612;28;20022;-78
2023/12/28 03:32:28;;;;;;;0.82;0.73;;;;;;;;;;5052370;28;20057;-78
2023/12/28 03:34:54;;;;;;;0.50;0.50;;;;;;;;;;5042436;28;20169;-80
2023/12/28 03:37:20;;;;;;;1.33;0.90;;;;;;;;;;5043965;28;20033;-79
2023/12/28 03:39:46;;;;;;;1.17;0.70;;;;;;;;;;5043828;28;20036;-79
2023/12/28 03:42:12;;;;;;;1.83;0.73;;;;;;;;;;5035688;28;20025;-79
2023/12/28 03:44:39;;;;;;;0.65;0.55;;;;;;;;;;5038356;28;20026;-80
2023/12/28 03:47:05;;;;;;;0.75;0.75;;;;;;;;;;5041621;28;20022;-80
2023/12/28 03:49:31;;;;;;;1.50;0.90;;;;;;;;;;5037387;28;20033;-78
2023/12/28 03:51:57;;;;;;;0.93;0.90;;;;;;;;;;5033122;28;20045;-79
2023/12/28 03:54:23;;;;;;;0.98;0.70;;;;;;;;;;5049928;28;20022;-80
2023/12/28 03:56:54;;;;;;;1.30;0.80;;;;;;;;;;5049522;28;20098;-80
2023/12/28 03:59:20;;;;;;;0.95;0.52;;;;;;;;;;5040701;28;20001;-77
2023/12/28 04:01:46;;;;;;;0.70;0.70;;;;;;;;;;5057403;28;20018;-76
2023/12/28 04:04:12;;;;;;;0.40;0.40;;;;;;;;;;5039354;28;20034;-79
2023/12/28 04:06:39;;;;;;;0.50;0.50;;;;;;;;;;5037763;28;20025;-78
2023/12/28 04:09:05;;;;;;;1.25;0.60;;;;;;;;;;5042944;28;20089;-79
2023/12/28 04:11:31;;;;;;;0.90;0.50;;;;;;;;;;5033863;28;20048;-79
2023/12/28 04:13:57;;;;;;;0.30;0.30;;;;;;;;;;5021909;28;20030;-79
2023/12/28 04:16:23;;;;;;;0.73;0.50;;;;;;;;;;5040517;28;20048;-78
2023/12/28 04:18:49;;;;;;;0.60;0.50;;;;;;;;;;5057921;28;20060;-78
2023/12/28 04:21:15;;;;;;;1.13;0.30;;;;;;;;;;5038481;28;20029;-79
2023/12/28 04:23:42;;;;;;;0.73;0.52;;;;;;;;;;5034427;28;20029;-80
2023/12/28 04:26:08;;;;;;;0.40;0.40;;;;;;;;;;5038389;28;20030;-80
2023/12/28 04:28:35;;;;;;;0.30;0.30;;;;;;;;;;5039223;28;20017;-80
2023/12/28 04:31:05;;;;;;;0.30;0.30;;;;;;;;;;5038586;28;20022;-80
2023/12/28 04:33:31;;;;;;;1.80;0.73;;;;;;;;;;5038644;28;20035;-79
2023/12/28 04:35:57;;;;;;;0.60;0.40;;;;;;;;;;5030078;28;20554;-80
2023/12/28 04:38:23;;;;;;;0.43;0.43;;;;;;;;;;5034427;28;20044;-78
2023/12/28 04:40:49;;;;;;;1.10;0.30;;;;;;;;;;5027726;28;20028;-79
2023/12/28 04:43:15;;;;;;;0.28;0.20;;;;;;;;;;5026419;28;20025;-80
2023/12/28 04:45:42;;;;;;;0.45;0.45;;;;;;;;;;5038570;28;20025;-80
2023/12/28 04:48:08;;;;;;;0.45;0.30;;;;;;;;;;5038719;28;20033;-79
2023/12/28 04:50:34;;;;;;;0.47;0.45;;;;;;;;;;5025061;28;20026;-80
2023/12/28 04:53:00;;;;;;;0.32;0.32;;;;;;;;;;5035212;28;20530;-79
2023/12/28 04:55:26;;;;;;;0.20;0.20;;;;;;;;;;5033813;28;20025;-79
2023/12/28 04:57:52;;;;;;;0.40;0.30;;;;;;;;;;5034179;28;20028;-77
2023/12/28 05:00:18;;;;;;;0.40;0.40;;;;;;;;;;5028836;28;20026;-79
2023/12/28 05:02:44;;;;;;;0.32;0.30;;;;;;;;;;5030708;28;20026;-80
2023/12/28 05:05:12;;;;;;;0.40;0.38;;;;;;;;;;5029220;28;20084;-79
2023/12/28 05:07:38;;;;;;;0.73;0.50;;;;;;;;;;5037546;28;20030;-80
2023/12/28 05:10:05;;;;;;;0.90;0.30;;;;;;;;;;5030006;28;20045;-79
2023/12/28 05:12:31;;;;;;;0.30;0.30;;;;;;;;;;5029913;28;20472;-79
2023/12/28 05:14:58;;;;;;;0.73;0.47;;;;;;;;;;5028964;28;20053;-79
2023/12/28 05:17:24;;;;;;;0.30;0.25;;;;;;;;;;5030570;28;20084;-80
2023/12/28 05:19:50;;;;;;;0.68;0.60;;;;;;;;;;5033366;28;20075;-80
2023/12/28 05:22:16;;;;;;;0.43;0.43;;;;;;;;;;5028105;28;20488;-79
2023/12/28 05:24:42;;;;;;;0.30;0.30;;;;;;;;;;5030026;28;20014;-81
2023/12/28 05:27:08;;;;;;;0.32;0.20;;;;;;;;;;5035629;28;20095;-79
2023/12/28 05:29:34;;;;;;;0.43;0.30;;;;;;;;;;5031938;28;20026;-79
2023/12/28 05:32:01;;;;;;;0.43;0.30;;;;;;;;;;5033997;28;20021;-80
2023/12/28 05:34:27;;;;;;;0.50;0.40;;;;;;;;;;5027758;28;20026;-80
2023/12/28 05:36:53;;;;;;;0.30;0.30;;;;;;;;;;5028438;28;20080;-79
2023/12/28 05:39:19;;;;;;;0.38;0.38;;;;;;;;;;5022844;28;20025;-79
2023/12/28 05:41:47;;;;;;;0.20;0.20;;;;;;;;;;5038300;28;20029;-79
2023/12/28 05:44:14;;;;;;;0.38;0.30;;;;;;;;;;5024982;28;20026;-79
2023/12/28 05:46:40;;;;;;;0.40;0.40;;;;;;;;;;5032630;28;20181;-80
2023/12/28 05:49:06;;;;;;;0.30;0.28;;;;;;;;;;5028214;28;20118;-79
2023/12/28 05:51:43;;;;;;;0.50;0.28;;;;;;;;;;5031854;28;20080;-78
2023/12/28 05:54:09;;;;;;;0.45;0.28;;;;;;;;;;5027879;28;20046;-80
2023/12/28 05:56:35;;;;;;;0.28;0.25;;;;;;;;;;5036371;28;20025;-80
2023/12/28 05:59:01;;;;;;;0.55;0.32;;;;;;;;;;5035852;28;20381;-81
2023/12/28 06:01:28;;;;;;;0.57;0.40;;;;;;;;;;5026686;28;20488;-80
2023/12/28 06:03:54;;;;;;;0.55;0.35;;;;;;;;;;5026234;28;20030;-78
2023/12/28 06:06:20;;;;;;;0.38;0.38;;;;;;;;;;5025433;28;20152;-81
2023/12/28 06:08:47;;;;;;;0.40;0.40;;;;;;;;;;5017376;28;20080;-80
2023/12/28 06:11:13;;;;;;;0.40;0.40;;;;;;;;;;5036962;28;20123;-80
2023/12/28 06:13:39;;;;;;;0.60;0.40;;;;;;;;;;5036235;28;20096;-80
2023/12/28 06:16:05;;;;;;;0.50;0.47;;;;;;;;;;5031959;28;20032;-79
2023/12/28 06:18:32;;;;;;;0.40;0.40;;;;;;;;;;5030991;28;20025;-79
2023/12/28 06:20:58;;;;;;;0.88;0.40;;;;;;;;;;5033818;28;20033;-79
2023/12/28 06:23:24;;;;;;;1.00;0.60;;;;;;;;;;5028147;28;20105;-80
2023/12/28 06:25:50;;;;;;;0.57;0.40;;;;;;;;;;5025406;28;20028;-79
2023/12/28 06:28:20;;;;;;;0.50;0.30;;;;;;;;;;5027466;28;20017;-81
2023/12/28 06:30:47;;;;;;;0.50;0.32;;;;;;;;;;5027660;28;20060;-79
2023/12/28 06:33:16;;;;;;;0.47;0.32;;;;;;;;;;5026374;28;20052;-79
2023/12/28 06:35:42;;;;;;;0.20;0.20;;;;;;;;;;5030602;28;20093;-79
2023/12/28 06:38:09;;;;;;;0.20;0.20;;;;;;;;;;5023101;28;20030;-80
2023/12/28 06:40:35;;;;;;;0.95;0.70;;;;;;;;;;5030333;28;20092;-79
2023/12/28 06:43:01;;;;;;;0.57;0.30;;;;;;;;;;5035391;28;20029;-78
2023/12/28 06:45:27;;;;;;;0.43;0.38;;;;;;;;;;5024623;28;20044;-79
2023/12/28 06:47:54;;;;;;;0.32;0.28;;;;;;;;;;5023818;28;20053;-79
2023/12/28 06:50:20;;;;;;;0.63;0.40;;;;;;;;;;5028030;28;20472;-81
2023/12/28 06:52:46;;;;;;;0.35;0.35;;;;;;;;;;5027931;28;20453;-79
2023/12/28 06:55:12;;;;;;;0.30;0.30;;;;;;;;;;5034424;28;20030;-79
2023/12/28 06:57:38;;;;;;;0.80;0.45;;;;;;;;;;5022984;28;20030;-78
2023/12/28 07:00:04;;;;;;;0.68;0.30;;;;;;;;;;5040801;28;20026;-78
2023/12/28 07:02:31;;;;;;;0.30;0.30;;;;;;;;;;5047884;28;20030;-79
2023/12/28 07:04:59;;;;;;;0.20;0.20;;;;;;;;;;5042231;28;20040;-79
2023/12/28 07:07:25;;;;;;;0.32;0.30;;;;;;;;;;5035927;28;20037;-79
2023/12/28 07:09:52;;;;;;;0.43;0.40;;;;;;;;;;5040629;28;20029;-78
2023/12/28 07:12:20;;;;;;;0.30;0.30;;;;;;;;;;5047445;28;20088;-79
2023/12/28 07:14:46;;;;;;;0.70;0.50;;;;;;;;;;5035014;28;20064;-79
2023/12/28 07:17:17;;;;;;;0.40;0.30;;;;;;;;;;5040768;28;20045;-78
2023/12/28 07:19:43;;;;;;;0.28;0.28;;;;;;;;;;5034002;28;20032;-79
2023/12/28 07:22:09;;;;;;;0.57;0.38;;;;;;;;;;5038415;28;20124;-80
2023/12/28 07:24:35;;;;;;;0.50;0.30;;;;;;;;;;5037287;28;20017;-80
2023/12/28 07:27:01;;;;;;;0.40;0.30;;;;;;;;;;5022857;28;20033;-79
2023/12/28 07:29:27;;;;;;;0.75;0.30;;;;;;;;;;5031448;28;20036;-79
2023/12/28 07:31:54;;;;;;;0.35;0.35;;;;;;;;;;5040441;28;20029;-80
2023/12/28 07:34:20;;;;;;;0.40;0.40;;;;;;;;;;5039806;28;20033;-80
2023/12/28 07:36:49;;;;;;;0.50;0.30;;;;;;;;;;5039862;28;20025;-78
2023/12/28 07:39:15;;;;;;;0.52;0.40;;;;;;;;;;5037855;28;20026;-78
2023/12/28 07:41:41;;;;;;;0.32;0.30;;;;;;;;;;5035606;28;20030;-80
2023/12/28 07:44:07;;;;;;;0.30;0.30;;;;;;;;;;5026492;28;20505;-80
2023/12/28 07:46:34;;;;;;;0.75;0.50;;;;;;;;;;5036999;28;20041;-80
2023/12/28 07:49:00;;;;;;;0.50;0.50;;;;;;;;;;5030580;28;20029;-79
2023/12/28 07:51:26;;;;;;;0.65;0.45;;;;;;;;;;5034642;28;20077;-81
2023/12/28 07:53:55;;;;;;;0.40;0.32;;;;;;;;;;5042767;28;20033;-80
2023/12/28 07:56:21;;;;;;;0.63;0.30;;;;;;;;;;5034807;28;20109;-79
2023/12/28 07:58:47;;;;;;;0.43;0.30;;;;;;;;;;5029462;28;20025;-79
2023/12/28 08:01:13;;;;;;;0.30;0.30;;;;;;;;;;5034914;28;20072;-79
2023/12/28 08:03:39;;;;;;;0.22;0.20;;;;;;;;;;5030145;28;20021;-80
2023/12/28 08:06:05;;;;;;;0.50;0.40;;;;;;;;;;5037931;28;20079;-79
2023/12/28 08:08:32;;;;;;;0.40;0.40;;;;;;;;;;5030432;28;20047;-80
2023/12/28 08:10:58;;;;;;;0.47;0.38;;;;;;;;;;5023773;28;20022;-79
2023/12/28 08:13:25;;;;;;;0.55;0.30;;;;;;;;;;5040547;28;20025;-79
2023/12/28 08:15:51;;;;;;;0.25;0.20;;;;;;;;;;5032255;28;20276;-82
2023/12/28 08:18:17;;;;;;;0.45;0.20;;;;;;;;;;5036615;28;20226;-79
2023/12/28 08:20:43;;;;;;;0.73;0.70;;;;;;;;;;5034900;28;20202;-80
2023/12/28 08:23:09;;;;;;;0.32;0.20;;;;;;;;;;5040854;28;20403;-80
2023/12/28 08:25:35;;;;;;;0.40;0.40;;;;;;;;;;5028200;28;20370;-79
2023/12/28 08:28:01;;;;;;;0.50;0.30;;;;;;;;;;5032757;28;20025;-79
2023/12/28 08:30:27;;;;;;;0.50;0.47;;;;;;;;;;5035629;28;20040;-80
2023/12/28 08:32:53;;;;;;;0.20;0.20;;;;;;;;;;5040689;28;20014;-78
2023/12/28 08:35:20;;;;;;;0.40;0.40;;;;;;;;;;5049273;28;20027;-79
2023/12/28 08:37:46;;;;;;;0.65;0.22;;;;;;;;;;5055258;28;20022;-77
2023/12/28 08:40:12;;;;;;;0.35;0.20;;;;;;;;;;5054940;28;20060;-79
2023/12/28 08:42:38;;;;;;;0.30;0.30;;;;;;;;;;5039632;28;20041;-77
2023/12/28 08:45:05;;;;;;;0.28;0.28;;;;;;;;;;5044057;28;20445;-78
2023/12/28 08:47:31;;;;;;;0.10;0.10;;;;;;;;;;5049672;28;20036;-79
2023/12/28 08:49:57;;;;;;;0.30;0.22;;;;;;;;;;5035009;28;20037;-81
2023/12/28 08:52:23;;;;;;;0.60;0.25;;;;;;;;;;5039644;28;20021;-80
2023/12/28 08:54:49;;;;;;;1.95;0.50;;;;;;;;;;5034995;28;20045;-80
2023/12/28 08:57:15;;;;;;;0.30;0.30;;;;;;;;;;5038600;28;20124;-80
2023/12/28 08:59:42;;;;;;;0.40;0.40;;;;;;;;;;5043630;28;20025;-78
2023/12/28 09:02:08;;;;;;;0.30;0.30;;;;;;;;;;5056205;28;20022;-77
2023/12/28 09:04:34;;;;;;;0.60;0.50;;;;;;;;;;5050262;28;20084;-78
2023/12/28 09:07:00;;;;;;;0.52;0.40;;;;;;;;;;5048790;28;20025;-78
2023/12/28 09:09:27;;;;;;;0.63;0.50;;;;;;;;;;5049664;28;20044;-77
2023/12/28 09:11:53;;;;;;;0.52;0.35;;;;;;;;;;5041866;28;20018;-77
2023/12/28 09:14:19;;;;;;;0.30;0.30;;;;;;;;;;5046960;28;20033;-80
2023/12/28 09:16:47;;;;;;;0.65;0.30;;;;;;;;;;5029934;28;20025;-79
2023/12/28 09:19:14;;;;;;;0.50;0.30;;;;;;;;;;5028421;28;20127;-80
2023/12/28 09:21:41;;;;;;;0.30;0.30;;;;;;;;;;5037066;28;20029;-79
2023/12/28 09:24:07;;;;;;;0.47;0.43;;;;;;;;;;5031817;28;20018;-80
2023/12/28 09:26:34;;;;;;;0.80;0.47;;;;;;;;;;5033010;28;20018;-80
2023/12/28 09:29:00;;;;;;;1.45;0.50;;;;;;;;;;5027586;28;20022;-80
2023/12/28 09:31:26;;;;;;;0.40;0.28;;;;;;;;;;5030445;28;20021;-79
2023/12/28 09:33:52;;;;;;;0.98;0.50;;;;;;;;;;5031300;28;20260;-80
2023/12/28 09:36:18;;;;;;;0.88;0.45;;;;;;;;;;5020476;28;20030;-79
2023/12/28 09:38:45;;;;;;;0.40;0.40;;;;;;;;;;5030527;28;20030;-80
2023/12/28 09:41:15;;;;;;;0.40;0.40;;;;;;;;;;5032522;28;20079;-80
2023/12/28 09:44:04;;;;;;;1.15;0.40;;;;;;;;;;5034894;28;20021;-79
2023/12/28 09:46:31;;;;;;;0.65;0.60;;;;;;;;;;5030372;28;20025;-80
2023/12/28 09:48:58;;;;;;;0.60;0.50;;;;;;;;;;5038321;28;20029;-79
2023/12/28 09:51:25;;;;;;;0.52;0.52;;;;;;;;;;5030941;28;20375;-79
2023/12/28 09:53:51;;;;;;;0.85;0.75;;;;;;;;;;5033018;28;20032;-80
2023/12/28 09:56:18;;;;;;;0.50;0.50;;;;;;;;;;5036211;28;20075;-80
2023/12/28 09:58:45;;;;;;;0.77;0.50;;;;;;;;;;5026244;28;20045;-79
2023/12/28 10:01:11;;;;;;;0.82;0.60;;;;;;;;;;5021527;28;20145;-79
2023/12/28 10:03:37;;;;;;;0.90;0.80;;;;;;;;;;5037409;28;20021;-79
2023/12/28 10:06:03;;;;;;;0.50;0.47;;;;;;;;;;5029708;28;20504;-78
2023/12/28 10:08:29;;;;;;;0.45;0.45;;;;;;;;;;5054784;28;20013;-78
2023/12/28 10:10:58;;;;;;;0.60;0.60;;;;;;;;;;5043306;28;20149;-79
2023/12/28 10:13:25;;;;;;;0.73;0.50;;;;;;;;;;5031483;28;20048;-79
2023/12/28 10:15:51;;;;;;;1.05;0.70;;;;;;;;;;5042851;28;20008;-77
2023/12/28 10:18:19;;;;;;;0.60;0.60;;;;;;;;;;5040997;28;20014;-79
2023/12/28 10:20:50;;;;;;;0.50;0.50;;;;;;;;;;5035512;28;20093;-76
2023/12/28 10:23:16;;;;;;;0.75;0.50;;;;;;;;;;5023519;28;20049;-78
2023/12/28 10:25:43;;;;;;;0.55;0.47;;;;;;;;;;5037085;28;20014;-79
2023/12/28 10:28:12;;;;;;;0.65;0.65;;;;;;;;;;5028496;28;20034;-79
2023/12/28 10:30:40;;;;;;;1.40;0.47;;;;;;;;;;5032564;28;20026;-80
2023/12/28 10:33:06;;;;;;;0.65;0.57;;;;;;;;;;5027123;28;20026;-78
2023/12/28 10:35:32;;;;;;;0.50;0.45;;;;;;;;;;5036562;28;20029;-79
2023/12/28 10:38:00;;;;;;;0.55;0.50;;;;;;;;;;5026940;28;20026;-79
2023/12/28 10:40:27;;;;;;;0.43;0.38;;;;;;;;;;5028167;28;20022;-80
2023/12/28 10:42:55;;;;;;;0.90;0.43;;;;;;;;;;5034811;28;20036;-79
2023/12/28 10:45:25;;;;;;;0.32;0.30;;;;;;;;;;5027113;28;20036;-79
2023/12/28 10:47:58;;;;;;;0.40;0.40;;;;;;;;;;5028532;28;20437;-80
2023/12/28 10:50:27;;;;;;;0.73;0.40;;;;;;;;;;5033299;28;20029;-79
2023/12/28 10:52:57;;;;;;;1.27;0.60;;;;;;;;;;5028816;28;20399;-80
2023/12/28 10:55:44;;;;;;;0.60;0.43;;;;;;;;;;5028010;28;20476;-78
2023/12/28 10:58:11;;;;;;;0.40;0.40;;;;;;;;;;5035044;28;20025;-78
2023/12/28 11:00:40;;;;;;;0.57;0.40;;;;;;;;;;5029593;28;20024;-79
2023/12/28 11:03:09;;;;;;;0.40;0.40;;;;;;;;;;5022743;28;20037;-79
2023/12/28 11:05:36;;;;;;;0.60;0.40;;;;;;;;;;5032793;28;20021;-79
2023/12/28 11:08:03;;;;;;;0.43;0.40;;;;;;;;;;5040505;28;20029;-78
2023/12/28 11:10:30;;;;;;;0.65;0.52;;;;;;;;;;5041234;28;20022;-78
2023/12/28 11:12:57;;;;;;;1.65;0.55;;;;;;;;;;5030597;28;20482;-79
2023/12/28 11:15:24;;;;;;;0.75;0.40;;;;;;;;;;5032964;28;20036;-78
2023/12/28 11:17:50;;;;;;;0.50;0.50;;;;;;;;;;5038338;28;20388;-79
2023/12/28 11:20:17;;;;;;;0.73;0.50;;;;;;;;;;5035281;28;20052;-78
2023/12/28 11:22:43;;;;;;;0.55;0.40;;;;;;;;;;5041127;28;20025;-78
2023/12/28 11:25:16;;;;;;;0.85;0.50;;;;;;;;;;5032942;28;20021;-79
2023/12/28 11:27:42;;;;;;;0.77;0.50;;;;;;;;;;5038146;28;20049;-80
2023/12/28 11:30:10;;;;;;;0.88;0.80;;;;;;;;;;5042849;28;20104;-78
2023/12/28 11:32:37;;;;;;;0.57;0.57;;;;;;;;;;5055654;23;20072;-79
2023/12/28 11:35:09;;;;;;;1.20;0.88;;;;;;;;;;5053668;28;20534;-77
2023/12/28 11:37:36;;;;;;;1.20;0.77;;;;;;;;;;5042554;28;20022;-79
2023/12/28 11:40:18;;;;;;;0.77;0.60;;;;;;;;;;5057767;28;20029;-78
2023/12/28 11:42:51;;;;;;;0.80;0.60;;;;;;;;;;5054930;28;20097;-78
2023/12/28 11:45:18;;;;;;;0.80;0.70;;;;;;;;;;5037187;28;20510;-78
2023/12/28 11:47:45;;;;;;;0.80;0.80;;;;;;;;;;5043460;28;20034;-78
2023/12/28 11:50:12;;;;;;;0.65;0.50;;;;;;;;;;5036929;28;20041;-77
2023/12/28 11:52:38;;;;;;;1.02;0.80;;;;;;;;;;5041156;28;20053;-78
2023/12/28 11:55:04;;;;;;;0.93;0.77;;;;;;;;;;5032211;28;20117;-77
2023/12/28 11:57:31;;;;;;;0.93;0.68;;;;;;;;;;5034719;28;20495;-78
2023/12/28 11:59:58;;;;;;;0.50;0.50;;;;;;;;;;5030837;28;20506;-79
2023/12/28 12:02:24;;;;;;;0.52;0.52;;;;;;;;;;5030574;28;20018;-78
2023/12/28 12:04:50;;;;;;;0.80;0.70;;;;;;;;;;5048468;28;20495;-78
2023/12/28 12:07:17;;;;;;;0.95;0.60;;;;;;;;;;5033782;28;20117;-78
2023/12/28 12:09:44;;;;;;;0.47;0.40;;;;;;;;;;5037627;28;20032;-78
2023/12/28 12:12:10;;;;;;;0.30;0.30;;;;;;;;;;5036083;28;20021;-80
2023/12/28 12:14:36;;;;;;;0.57;0.57;;;;;;;;;;5028142;28;20017;-78
2023/12/28 12:17:03;;;;;;;1.00;0.60;;;;;;;;;;5027279;28;20030;-78
2023/12/28 12:19:29;;;;;;;0.80;0.80;;;;;;;;;;5039983;28;20032;-79
2023/12/28 12:21:56;;;;;;;0.90;0.80;;;;;;;;;;5029196;28;20096;-78
2023/12/28 12:24:23;;;;;;;0.68;0.60;;;;;;;;;;5034637;28;20030;-79
2023/12/28 12:26:52;;;;;;;0.77;0.77;;;;;;;;;;5039793;28;20026;-80
2023/12/28 12:29:19;;;;;;;0.70;0.68;;;;;;;;;;5045006;28;20072;-78
2023/12/28 12:31:46;;;;;;;1.38;0.90;;;;;;;;;;5051673;28;20018;-78
2023/12/28 12:34:15;;;;;;;0.70;0.63;;;;;;;;;;5033784;28;20038;-78
2023/12/28 12:36:42;;;;;;;0.75;0.60;;;;;;;;;;5027747;28;20025;-77
2023/12/28 12:39:11;;;;;;;1.02;0.77;;;;;;;;;;5035656;28;20036;-77
2023/12/28 12:41:40;;;;;;;1.42;0.73;;;;;;;;;;5035647;28;20014;-77
2023/12/28 12:44:06;;;;;;;0.88;0.80;;;;;;;;;;5036092;28;20081;-78
2023/12/28 12:46:32;;;;;;;1.38;1.00;;;;;;;;;;5041511;28;20030;-78
2023/12/28 12:48:59;;;;;;;1.13;0.90;;;;;;;;;;5027236;28;20092;-78
2023/12/28 12:51:26;;;;;;;1.35;1.20;;;;;;;;;;5040907;28;20076;-78
2023/12/28 12:54:03;;;;;;;1.67;0.98;;;;;;;;;;5028823;28;20032;-79
2023/12/28 12:56:29;;;;;;;1.10;0.93;;;;;;;;;;5027254;28;20054;-77
2023/12/28 12:58:56;;;;;;;1.80;1.20;;;;;;;;;;5029623;28;20024;-77
2023/12/28 13:01:22;;;;;;;1.27;0.88;;;;;;;;;;5041225;28;20075;-78
2023/12/28 13:03:48;;;;;;;0.70;0.70;;;;;;;;;;5030872;28;20029;-78
2023/12/28 13:06:15;;;;;;;1.33;1.00;;;;;;;;;;5034529;28;20037;-79
2023/12/28 13:08:41;;;;;;;1.65;0.80;;;;;;;;;;5046624;28;20047;-78
2023/12/28 13:11:07;;;;;;;1.35;0.70;;;;;;;;;;5045275;28;20052;-79
2023/12/28 13:13:33;;;;;;;1.65;1.00;;;;;;;;;;5043584;28;20021;-78
2023/12/28 13:15:59;;;;;;;1.73;1.00;;;;;;;;;;5052348;28;20040;-79
2023/12/28 13:18:26;;;;;;;1.77;1.10;;;;;;;;;;5049629;28;20065;-78
2023/12/28 13:20:52;;;;;;;1.20;0.70;;;;;;;;;;5052084;28;20047;-78
2023/12/28 13:23:18;;;;;;;1.90;0.98;;;;;;;;;;5034437;28;20022;-78
2023/12/28 13:25:44;;;;;;;1.17;0.80;;;;;;;;;;5031231;28;20029;-78
2023/12/28 13:28:10;;;;;;;2.38;1.10;;;;;;;;;;5039512;28;20051;-78
2023/12/28 13:30:37;;;;;;;1.50;1.27;;;;;;;;;;5033585;28;20399;-78
2023/12/28 13:33:06;;;;;;;1.27;0.90;;;;;;;;;;5030774;28;20040;-78
2023/12/28 13:35:35;;;;;;;1.33;0.93;;;;;;;;;;5038340;28;20026;-77
2023/12/28 13:38:01;;;;;;;1.52;0.95;;;;;;;;;;5048669;28;20053;-78
2023/12/28 13:40:29;;;;;;;1.60;1.02;;;;;;;;;;5031517;28;20030;-78
2023/12/28 13:42:55;;;;;;;1.17;1.08;;;;;;;;;;5038452;28;20029;-77
2023/12/28 13:45:21;;;;;;;1.13;1.02;;;;;;;;;;5037766;28;20026;-77
2023/12/28 13:47:47;;;;;;;1.70;1.23;;;;;;;;;;5036003;28;20106;-77
2023/12/28 13:50:13;;;;;;;1.02;0.85;;;;;;;;;;5036829;28;20067;-78
2023/12/28 13:52:39;;;;;;;1.05;0.90;;;;;;;;;;5026955;28;20022;-78
2023/12/28 13:55:05;;;;;;;1.88;1.00;;;;;;;;;;5039797;28;20030;-78
2023/12/28 13:57:32;;;;;;;1.25;0.80;;;;;;;;;;5039968;28;20097;-79
2023/12/28 14:00:00;;;;;;;1.15;1.05;;;;;;;;;;5036274;28;20018;-77
2023/12/28 14:02:26;;;;;;;1.23;0.90;;;;;;;;;;5033223;28;20028;-79
2023/12/28 14:04:55;;;;;;;1.55;0.70;;;;;;;;;;5039323;28;20028;-78
2023/12/28 14:07:21;;;;;;;1.25;0.70;;;;;;;;;;5030511;28;20036;-78
2023/12/28 14:09:47;;;;;;;0.82;0.60;;;;;;;;;;5035727;28;20022;-76
2023/12/28 14:12:14;;;;;;;0.80;0.60;;;;;;;;;;5028869;28;20060;-78
2023/12/28 14:14:40;;;;;;;0.60;0.60;;;;;;;;;;5035798;28;20032;-77
2023/12/28 14:17:06;;;;;;;4.18;1.50;;;;;;;;;;5033077;28;20051;-80
2023/12/28 14:19:32;;;;;;;1.38;1.15;;;;;;;;;;5040575;28;20048;-78
2023/12/28 14:21:58;;;;;;;1.67;1.35;;;;;;;;;;5034123;28;20108;-78
2023/12/28 14:24:25;;;;;;;2.20;1.30;;;;;;;;;;5036971;28;20056;-79
2023/12/28 14:26:53;;;;;;;1.75;1.10;;;;;;;;;;5046348;28;20079;-75
2023/12/28 14:29:20;;;;;;;2.63;1.52;;;;;;;;;;5025737;28;20056;-78
2023/12/28 14:31:46;;;;;;;1.50;1.20;;;;;;;;;;5036980;28;20026;-78
2023/12/28 14:34:13;;;;;;;1.23;0.93;;;;;;;;;;5031384;28;20056;-77
2023/12/28 14:36:39;;;;;;;1.13;1.00;;;;;;;;;;5037998;28;20033;-77
2023/12/28 14:39:06;;;;;;;1.15;0.85;;;;;;;;;;5037897;28;20041;-78
2023/12/28 14:41:32;;;;;;;1.20;0.95;;;;;;;;;;5037381;28;20026;-77